createdAt,value
2023-02-24T00:02:05.982Z,95087.66
2023-02-24T00:04:35.909Z,95079.53
2023-02-24T00:07:03.088Z,95079.38
2023-02-24T00:09:31.961Z,95081.97
2023-02-24T00:12:13.260Z,95075.50
2023-02-24T00:14:42.556Z,95080.34
2023-02-24T00:17:10.608Z,95081.28
2023-02-24T00:19:38.520Z,95079.00
2023-02-24T00:22:07.626Z,95082.53
2023-02-24T00:24:35.826Z,95079.28
2023-02-24T00:27:08.007Z,95056.25
2023-02-24T00:29:37.871Z,95072.50
2023-02-24T00:32:07.514Z,95068.44
2023-02-24T00:34:37.036Z,95074.69
2023-02-24T00:37:07.074Z,95071.97
2023-02-24T00:39:35.766Z,95063.56
2023-02-24T00:42:05.862Z,95060.31
2023-02-24T00:44:36.259Z,95057.75
2023-02-24T00:47:05.129Z,95064.53
2023-02-24T00:49:36.097Z,95068.84
2023-02-24T00:52:08.250Z,95061.13
2023-02-24T00:54:38.349Z,95054.38
2023-02-24T00:57:08.416Z,95048.69
2023-02-24T00:59:36.351Z,95051.94
2023-02-24T01:02:04.060Z,95053.00
2023-02-24T01:04:31.205Z,95046.53
2023-02-24T01:07:00.816Z,95038.41
2023-02-24T01:09:31.301Z,95057.09
2023-02-24T01:12:18.401Z,95050.31
2023-02-24T01:14:49.908Z,95036.50
2023-02-24T01:17:18.994Z,95031.50
2023-02-24T01:19:49.618Z,95030.44
2023-02-24T01:22:18.685Z,95037.19
2023-02-24T01:24:46.458Z,95027.84
2023-02-24T01:27:14.944Z,95022.84
2023-02-24T01:29:41.847Z,95025.97
2023-02-24T01:32:17.234Z,95014.19
2023-02-24T01:34:44.957Z,95027.84
2023-02-24T01:37:16.583Z,95014.31
2023-02-24T01:39:45.854Z,95020.28
2023-02-24T01:42:17.144Z,95022.97
2023-02-24T01:44:43.964Z,95020.41
2023-02-24T01:47:11.371Z,95025.69
2023-02-24T01:49:42.517Z,95017.56
2023-02-24T01:52:24.433Z,95016.06
2023-02-24T01:55:04.189Z,95016.22
2023-02-24T01:57:36.124Z,95014.06
2023-02-24T02:00:32.132Z,95015.94
2023-02-24T02:03:08.271Z,95017.81
2023-02-24T02:05:35.732Z,95008.88
2023-02-24T02:08:05.312Z,95019.03
2023-02-24T02:10:34.095Z,95008.06
2023-02-24T02:13:04.780Z,95022.97
2023-02-24T02:15:37.662Z,95006.19
2023-02-24T02:18:21.146Z,95007.00
2023-02-24T02:21:19.092Z,95008.34
2023-02-24T02:24:04.795Z,95018.22
2023-02-24T02:27:04.625Z,95021.06
2023-02-24T02:29:46.709Z,95025.69
2023-02-24T02:32:17.401Z,95019.16
2023-02-24T02:35:13.115Z,95014.28
2023-02-24T02:38:04.586Z,95013.19
2023-02-24T02:41:17.727Z,95016.72
2023-02-24T02:43:59.718Z,95019.16
2023-02-24T02:46:35.977Z,95019.84
2023-02-24T02:49:38.925Z,95019.69
2023-02-24T02:52:14.175Z,95020.78
2023-02-24T02:55:00.490Z,95014.28
2023-02-24T02:57:30.441Z,95005.19
2023-02-24T03:00:00.376Z,95005.88
2023-02-24T03:02:38.386Z,95011.03
2023-02-24T03:05:10.142Z,95011.84
2023-02-24T03:07:45.497Z,95016.16
2023-02-24T03:10:22.392Z,95009.41
2023-02-24T03:12:55.454Z,95015.22
2023-02-24T03:15:26.740Z,95003.44
2023-02-24T03:18:02.922Z,95014.53
2023-02-24T03:20:35.802Z,95016.41
2023-02-24T03:23:16.909Z,95023.19
2023-02-24T03:26:01.569Z,95013.72
2023-02-24T03:28:37.567Z,95011.03
2023-02-24T03:31:46.310Z,95018.59
2023-02-24T03:34:20.496Z,95010.75
2023-02-24T03:36:48.315Z,95014.28
2023-02-24T03:39:16.830Z,95011.84
2023-02-24T03:42:20.395Z,95009.13
2023-02-24T05:03:17.619Z,94986.25
2023-02-24T05:05:56.848Z,94984.34
2023-02-24T05:08:25.210Z,94985.84
2023-02-24T05:10:52.391Z,94983.16
2023-02-24T05:13:27.531Z,94989.66
2023-02-24T05:15:56.763Z,94982.91
2023-02-24T05:18:24.131Z,94993.59
2023-02-24T05:21:13.381Z,94992.63
2023-02-24T05:23:45.379Z,94996.94
2023-02-24T05:26:20.634Z,94990.72
2023-02-24T07:14:08.193Z,95003.22
2023-02-24T07:16:36.127Z,94992.66
2023-02-24T07:19:11.371Z,95003.50
2023-02-24T07:21:40.452Z,94993.88
2023-02-24T07:24:08.986Z,94991.69
2023-02-24T07:26:35.871Z,94984.81
2023-02-24T07:29:06.577Z,94985.63
2023-02-24T07:31:34.642Z,94984.81
2023-02-24T07:34:02.291Z,94988.88
2023-02-24T07:36:30.573Z,94992.13
2023-02-24T07:38:59.267Z,94987.53
2023-02-24T07:41:26.649Z,94997.66
2023-02-24T08:19:23.975Z,94959.09
2023-02-24T08:21:53.194Z,94956.91
2023-02-24T08:24:25.380Z,94961.25
2023-02-24T08:27:06.871Z,94958.53
2023-02-24T08:29:57.940Z,94960.97
2023-02-24T08:32:44.123Z,94962.03
2023-02-24T08:35:16.962Z,94962.28
2023-02-24T08:37:49.376Z,94963.09
2023-02-24T08:40:34.343Z,94967.16
2023-02-24T08:43:33.165Z,94959.31
2023-02-24T08:46:18.776Z,94957.53
2023-02-24T08:48:55.709Z,94957.88
2023-02-24T08:51:34.979Z,94951.31
2023-02-24T08:54:11.734Z,94945.56
2023-02-24T08:56:43.799Z,94949.84
2023-02-24T08:59:29.512Z,94950.47
2023-02-24T09:02:18.372Z,94948.66
2023-02-24T09:04:47.258Z,94948.06
2023-02-24T09:07:16.912Z,94953.44
2023-02-24T09:09:44.336Z,94946.63
2023-02-24T09:12:22.325Z,94943.22
2023-02-24T09:14:50.338Z,94945.13
2023-02-24T09:17:20.860Z,94942.00
2023-02-24T09:19:52.031Z,94947.63
2023-02-24T09:22:53.865Z,94948.09
2023-02-24T09:25:40.813Z,94944.53
2023-02-24T09:28:18.007Z,94936.66
2023-02-24T09:31:00.629Z,94938.59
2023-02-24T09:33:39.185Z,94934.91
2023-02-24T09:36:20.533Z,94936.03
2023-02-24T09:39:01.540Z,94938.00
2023-02-24T09:41:55.850Z,94937.50
2023-02-24T09:44:33.555Z,94930.34
2023-02-24T09:47:00.537Z,94924.66
2023-02-24T09:49:40.187Z,94918.19
2023-02-24T09:52:17.080Z,94917.81
2023-02-24T09:55:05.890Z,94914.31
2023-02-24T09:58:02.058Z,94913.06
2023-02-24T10:00:33.833Z,94905.94
2023-02-24T10:03:19.816Z,94905.00
2023-02-24T10:06:12.380Z,94896.47
2023-02-24T10:08:46.007Z,94881.78
2023-02-24T10:11:14.835Z,94877.41
2023-02-24T10:13:49.655Z,94873.06
2023-02-24T10:16:24.217Z,94877.91
2023-02-24T10:19:17.524Z,94870.47
2023-02-24T10:22:28.698Z,94865.97
2023-02-24T10:25:36.483Z,94845.97
2023-02-24T10:28:15.143Z,94851.78
2023-02-24T10:31:25.636Z,94855.06
2023-02-24T10:33:59.768Z,94852.16
2023-02-24T10:36:36.192Z,94843.06
2023-02-24T10:39:20.834Z,94830.03
2023-02-24T10:42:15.790Z,94837.78
2023-02-24T10:45:02.350Z,94831.97
2023-02-24T10:47:31.348Z,94820.56
2023-02-24T10:50:03.279Z,94812.69
2023-02-24T10:52:57.371Z,94814.19
2023-02-24T10:55:50.501Z,94808.88
2023-02-24T10:58:38.317Z,94804.19
2023-02-24T11:01:28.030Z,94796.56
2023-02-24T11:04:19.705Z,94805.22
2023-02-24T11:06:52.932Z,94798.00
2023-02-24T11:09:28.615Z,94792.78
2023-02-24T11:12:34.964Z,94779.94
2023-02-24T11:15:25.515Z,94773.41
2023-02-24T11:17:58.997Z,94764.31
2023-02-24T11:20:49.068Z,94767.03
2023-02-24T11:23:24.889Z,94763.31
2023-02-24T11:25:58.425Z,94758.13
2023-02-24T11:28:43.737Z,94750.50
2023-02-24T11:31:26.246Z,94743.97
2023-02-24T11:33:53.323Z,94736.16
2023-02-24T11:36:42.057Z,94732.13
2023-02-24T11:39:21.552Z,94723.28
2023-02-24T11:41:55.665Z,94713.75
2023-02-24T11:44:36.448Z,94711.13
2023-02-24T11:47:09.877Z,94702.72
2023-02-24T11:49:48.544Z,94702.13
2023-02-24T11:52:22.685Z,94689.06
2023-02-24T11:54:55.209Z,94678.63
2023-02-24T11:57:46.699Z,94677.38
2023-02-24T12:00:16.605Z,94671.59
2023-02-24T12:03:04.799Z,94682.78
2023-02-24T12:05:37.259Z,94662.25
2023-02-24T12:08:16.297Z,94670.53
2023-02-24T12:10:52.596Z,94670.34
2023-02-24T12:13:56.932Z,94666.38
2023-02-24T12:16:33.452Z,94658.59
2023-02-24T12:19:21.014Z,94657.41
2023-02-24T12:21:53.563Z,94636.94
2023-02-24T12:24:21.563Z,94645.03
2023-02-24T12:27:26.357Z,94666.94
2023-02-24T12:30:48.786Z,94664.06
2023-02-24T12:33:43.063Z,94648.50
2023-02-24T12:36:39.437Z,94645.91
2023-02-24T12:39:21.451Z,94645.16
2023-02-24T12:42:01.404Z,94644.59
2023-02-24T12:44:37.728Z,94655.63
2023-02-24T12:47:19.512Z,94645.97
2023-02-24T12:50:16.819Z,94658.94
2023-02-24T12:52:52.706Z,94674.09
2023-02-24T12:55:22.800Z,94669.59
2023-02-24T12:58:03.670Z,94661.47
2023-02-24T13:01:05.825Z,94637.50
2023-02-24T13:03:49.730Z,94632.47
2023-02-24T13:06:37.887Z,94627.47
2023-02-24T13:09:29.599Z,94619.69
2023-02-24T13:12:14.950Z,94618.31
2023-02-24T13:14:43.299Z,94610.72
2023-02-24T13:17:13.038Z,94614.34
2023-02-24T13:19:41.669Z,94608.72
2023-02-24T13:22:19.792Z,94613.53
2023-02-24T13:25:10.005Z,94604.31
2023-02-24T13:27:43.178Z,94605.28
2023-02-24T13:30:17.903Z,94613.13
2023-02-24T13:32:47.144Z,94612.72
2023-02-24T13:35:13.963Z,94611.56
2023-02-24T13:37:42.761Z,94609.97
2023-02-24T13:40:18.190Z,94600.75
2023-02-24T13:42:56.128Z,94616.38
2023-02-24T13:45:26.815Z,94600.63
2023-02-24T13:48:00.711Z,94611.88
2023-02-24T13:50:37.685Z,94606.00
2023-02-24T13:53:41.558Z,94612.81
2023-02-24T13:56:20.596Z,94620.88
2023-02-24T13:58:50.652Z,94615.16
2023-02-24T14:01:19.008Z,94611.50
2023-02-24T14:04:07.350Z,94599.69
2023-02-24T14:06:34.578Z,94608.13
2023-02-24T14:09:04.606Z,94606.63
2023-02-24T14:11:35.981Z,94597.69
2023-02-24T14:14:03.791Z,94599.22
2023-02-24T14:16:40.024Z,94601.16
2023-02-24T14:19:14.555Z,94611.69
2023-02-24T14:21:52.470Z,94616.25
2023-02-24T14:24:20.574Z,94610.25
2023-02-24T14:26:56.524Z,94613.38
2023-02-24T14:29:26.990Z,94598.53
2023-02-24T14:31:56.500Z,94604.53
2023-02-24T14:34:31.105Z,94608.59
2023-02-24T14:37:01.568Z,94598.59
2023-02-24T14:39:30.753Z,94609.75
2023-02-24T14:42:12.413Z,94609.59
2023-02-24T14:44:49.153Z,94602.78
2023-02-24T14:47:18.293Z,94592.78
2023-02-24T14:50:00.013Z,94592.78
2023-02-24T14:52:32.574Z,94590.34
2023-02-24T14:55:03.626Z,94598.28
2023-02-24T14:57:35.569Z,94601.53
2023-02-24T15:00:17.524Z,94592.88
2023-02-24T15:02:50.902Z,94593.16
2023-02-24T15:05:17.980Z,94597.53
2023-02-24T15:07:45.772Z,94590.84
2023-02-24T15:10:31.312Z,94587.63
2023-02-24T15:13:09.900Z,94589.88
2023-02-24T15:15:40.634Z,94581.44
2023-02-24T15:18:19.816Z,94583.06
2023-02-24T15:21:04.928Z,94578.53
2023-02-24T15:23:37.593Z,94580.13
2023-02-24T15:26:08.936Z,94579.25
2023-02-24T15:28:37.780Z,94578.94
2023-02-24T15:31:18.943Z,94578.66
2023-02-24T15:33:55.490Z,94576.38
2023-02-24T15:36:27.022Z,94579.78
2023-02-24T15:38:58.233Z,94573.00
2023-02-24T15:41:25.747Z,94568.31
2023-02-24T15:43:56.505Z,94566.81
2023-02-24T15:46:30.673Z,94560.84
2023-02-24T15:49:01.953Z,94556.47
2023-02-24T15:51:42.273Z,94565.16
2023-02-24T15:54:15.872Z,94561.09
2023-02-24T15:56:43.788Z,94557.53
2023-02-24T15:59:14.947Z,94563.16
2023-02-24T16:01:41.851Z,94562.03
2023-02-24T16:04:11.539Z,94560.06
2023-02-24T16:06:42.299Z,94556.84
2023-02-24T16:09:14.528Z,94553.13
2023-02-24T16:11:45.698Z,94546.50
2023-02-24T16:14:16.748Z,94551.34
2023-02-24T16:16:44.654Z,94545.34
2023-02-24T16:19:14.944Z,94553.28
2023-02-24T16:21:44.115Z,94557.19
2023-02-24T16:24:10.925Z,94545.88
2023-02-24T16:26:40.306Z,94547.19
2023-02-24T16:29:11.824Z,94549.47
2023-02-24T16:31:40.072Z,94558.56
2023-02-24T16:34:08.060Z,94557.28
2023-02-24T16:36:36.175Z,94557.97
2023-02-24T16:39:05.257Z,94559.44
2023-02-24T16:41:32.205Z,94557.03
2023-02-24T16:43:59.059Z,94560.13
2023-02-24T16:46:32.985Z,94563.84
2023-02-24T16:48:59.840Z,94564.53
2023-02-24T16:51:26.866Z,94553.91
2023-02-24T16:53:53.724Z,94553.53
2023-02-24T16:56:20.966Z,94551.31
2023-02-24T16:58:47.997Z,94564.41
2023-02-24T17:01:20.565Z,94564.56
2023-02-24T17:03:50.202Z,94563.44
2023-02-24T17:06:17.084Z,94569.41
2023-02-24T17:08:46.193Z,94564.25
2023-02-24T17:11:15.592Z,94561.84
2023-02-24T17:13:42.410Z,94554.41
2023-02-24T17:16:09.483Z,94551.34
2023-02-24T17:18:36.585Z,94561.03
2023-02-24T17:21:04.808Z,94567.81
2023-02-24T17:23:32.550Z,94555.91
2023-02-24T17:26:02.216Z,94555.53
2023-02-24T17:28:29.489Z,94560.72
2023-02-24T17:30:56.521Z,94563.94
2023-02-24T17:33:23.655Z,94548.44
2023-02-24T17:35:50.734Z,94533.25
2023-02-24T17:38:20.698Z,94558.00
2023-02-24T17:40:48.086Z,94550.94
2023-02-24T17:43:15.184Z,94554.81
2023-02-24T17:45:45.019Z,94552.38
2023-02-24T17:48:13.590Z,94565.31
2023-02-24T17:50:44.973Z,94553.72
2023-02-24T17:53:12.146Z,94550.81
2023-02-24T17:55:40.354Z,94558.56
2023-02-24T17:58:09.997Z,94556.63
2023-02-24T18:00:38.467Z,94553.22
2023-02-24T18:03:05.625Z,94558.56
2023-02-24T18:05:32.717Z,94547.09
2023-02-24T18:07:59.918Z,94550.00
2023-02-24T18:10:27.550Z,94551.94
2023-02-24T18:12:54.380Z,94548.72
2023-02-24T18:15:21.201Z,94551.50
2023-02-24T18:17:48.086Z,94544.06
2023-02-24T18:20:15.029Z,94542.94
2023-02-24T18:22:41.959Z,94541.81
2023-02-24T18:25:09.129Z,94543.91
2023-02-24T18:27:36.060Z,94553.88
2023-02-24T18:30:03.015Z,94555.19
2023-02-24T18:32:30.172Z,94555.97
2023-02-24T18:34:57.203Z,94551.31
2023-02-24T18:37:24.031Z,94551.81
2023-02-24T18:39:53.429Z,94544.56
2023-02-24T18:42:20.482Z,94536.69
2023-02-24T18:44:47.565Z,94551.22
2023-02-24T18:47:14.406Z,94542.50
2023-02-24T18:49:41.343Z,94551.53
2023-02-24T18:52:08.199Z,94543.50
2023-02-24T18:54:35.029Z,94540.56
2023-02-24T18:57:02.156Z,94535.72
2023-02-24T18:59:29.493Z,94537.00
2023-02-24T19:01:57.224Z,94545.41
2023-02-24T19:04:25.372Z,94538.31
2023-02-24T19:06:53.321Z,94546.69
2023-02-24T19:09:21.912Z,94541.84
2023-02-24T19:11:50.334Z,94544.09
2023-02-24T19:14:17.600Z,94544.09
2023-02-24T19:16:45.402Z,94543.13
2023-02-24T19:19:14.154Z,94549.25
2023-02-24T19:21:41.269Z,94541.00
2023-02-24T19:24:11.274Z,94550.88
2023-02-24T19:26:39.037Z,94548.28
2023-02-24T19:29:06.672Z,94547.00
2023-02-24T19:31:34.657Z,94544.72
2023-02-24T19:34:08.620Z,94551.50
2023-02-24T19:36:38.506Z,94555.03
2023-02-24T19:39:09.767Z,94556.97
2023-02-24T19:41:38.112Z,94554.69
2023-02-24T19:44:05.444Z,94559.84
2023-02-24T19:46:34.408Z,94550.81
2023-02-24T19:49:02.471Z,94550.00
2023-02-24T19:51:31.435Z,94551.31
2023-02-24T19:54:02.205Z,94550.16
2023-02-24T19:56:31.901Z,94556.13
2023-02-24T19:59:01.049Z,94556.44
2023-02-24T20:01:29.768Z,94561.75
2023-02-24T20:04:00.363Z,94554.63
2023-02-24T20:06:33.802Z,94549.00
2023-02-24T20:09:02.006Z,94551.75
2023-02-24T20:11:30.214Z,94548.00
2023-02-24T20:13:57.638Z,94545.28
2023-02-24T20:16:26.402Z,94550.44
2023-02-24T20:18:55.716Z,94552.38
2023-02-24T20:21:23.242Z,94556.22
2023-02-24T20:23:51.307Z,94553.63
2023-02-24T20:26:18.773Z,94543.13
2023-02-24T20:28:47.665Z,94546.78
2023-02-24T20:31:18.998Z,94550.50
2023-02-24T20:33:48.073Z,94546.66
2023-02-24T20:36:26.692Z,94541.66
2023-02-24T20:38:54.605Z,94544.06
2023-02-24T20:41:22.126Z,94536.50
2023-02-24T20:43:49.527Z,94541.66
2023-02-24T20:46:26.279Z,94522.97
2023-02-24T20:48:56.848Z,94542.56
2023-02-24T20:51:26.543Z,94539.75
2023-02-24T20:53:58.195Z,94544.91
2023-02-24T20:56:28.087Z,94531.88
2023-02-24T20:59:00.180Z,94525.41
2023-02-24T21:01:28.458Z,94533.28
2023-02-24T21:03:55.586Z,94536.81
2023-02-24T21:06:23.273Z,94543.00
2023-02-24T21:08:51.304Z,94523.38
2023-02-24T21:11:18.168Z,94524.66
2023-02-24T21:13:47.707Z,94531.72
2023-02-24T21:16:15.881Z,94518.50
2023-02-24T21:18:44.774Z,94539.75
2023-02-24T21:21:12.682Z,94525.63
2023-02-24T21:23:39.654Z,94538.56
2023-02-24T21:26:07.202Z,94528.06
2023-02-24T21:28:35.205Z,94524.53
2023-02-24T21:31:08.180Z,94537.91
2023-02-24T21:33:35.496Z,94520.72
2023-02-24T21:36:09.388Z,94526.50
2023-02-24T21:38:36.885Z,94528.78
2023-02-24T21:41:08.540Z,94535.25
2023-02-24T21:43:35.759Z,94524.81
2023-02-24T21:46:07.221Z,94523.84
2023-02-24T21:48:34.130Z,94520.28
2023-02-24T21:51:06.091Z,94525.94
2023-02-24T21:53:35.791Z,94514.50
2023-02-24T21:56:11.238Z,94512.56
2023-02-24T21:58:39.578Z,94519.00
2023-02-24T22:01:15.247Z,94499.81
2023-02-24T22:03:42.206Z,94512.63
2023-02-24T22:06:11.197Z,94511.94
2023-02-24T22:08:43.254Z,94521.25
